Time;durP1;ratioP1;P1;durP2;ratioP2;P2;SDS_P1;SDS_P2;PMS_P1;PMS_P2;Temp;Humidity;BMP_temperature;BMP_pressure;BME280_temperature;BME280_humidity;BME280_pressure;Samples;Min_cycle;Max_cycle;Signal;HPM_P1;HPM_P2
2023/08/01 00:02:10;;;;;;;1.63;1.00;;;16.30;99.90;;;;;;4984796;28;20516;-64
2023/08/01 00:04:36;;;;;;;2.72;1.13;;;16.40;99.90;;;;;;4986833;28;20026;-64
2023/08/01 00:07:02;;;;;;;3.47;1.00;;;16.40;99.90;;;;;;4988291;28;20030;-62
2023/08/01 00:09:27;;;;;;;4.63;1.10;;;16.30;99.90;;;;;;4983007;28;20030;-63
2023/08/01 00:11:53;;;;;;;1.15;1.00;;;16.40;99.90;;;;;;4980852;28;20369;-65
2023/08/01 00:14:20;;;;;;;2.10;0.90;;;16.40;99.90;;;;;;4984774;28;20105;-64
2023/08/01 00:16:45;;;;;;;4.32;0.88;;;16.40;99.90;;;;;;4981637;28;20122;-64
2023/08/01 00:19:12;;;;;;;4.47;0.90;;;16.40;99.90;;;;;;4988596;28;20097;-64
2023/08/01 00:21:38;;;;;;;3.15;0.98;;;16.40;99.90;;;;;;4991552;28;20026;-64
2023/08/01 00:24:05;;;;;;;7.93;2.03;;;16.40;99.90;;;;;;4990365;28;20015;-64
2023/08/01 00:26:30;;;;;;;4.90;0.75;;;16.50;99.90;;;;;;4991623;28;20018;-64
2023/08/01 00:28:56;;;;;;;0.95;0.70;;;16.40;99.90;;;;;;4990854;28;20437;-64
2023/08/01 00:31:21;;;;;;;1.00;0.60;;;16.40;99.90;;;;;;4992167;28;20026;-64
2023/08/01 00:33:47;;;;;;;2.70;0.85;;;16.50;99.90;;;;;;4988610;28;20049;-64
2023/08/01 00:36:13;;;;;;;0.82;0.73;;;16.40;99.90;;;;;;4969790;28;20441;-62
2023/08/01 00:38:38;;;;;;;3.05;0.68;;;16.40;99.90;;;;;;4984766;28;20089;-64
2023/08/01 00:41:04;;;;;;;1.73;0.90;;;16.40;99.90;;;;;;4970233;28;20030;-63
2023/08/01 00:43:30;;;;;;;1.05;0.50;;;16.50;99.90;;;;;;4976116;28;20037;-64
2023/08/01 00:46:00;;;;;;;0.75;0.50;;;16.40;99.90;;;;;;4992354;28;20535;-63
2023/08/01 00:48:25;;;;;;;3.35;0.63;;;16.40;99.90;;;;;;4978571;28;20026;-64
2023/08/01 00:50:51;;;;;;;1.05;0.93;;;16.40;99.90;;;;;;4987671;28;20156;-64
2023/08/01 00:53:18;;;;;;;6.03;0.70;;;16.40;99.90;;;;;;4985288;28;20026;-63
2023/08/01 00:55:44;;;;;;;1.35;0.65;;;16.50;99.90;;;;;;4964738;28;20070;-64
2023/08/01 00:58:10;;;;;;;1.00;0.70;;;16.50;99.90;;;;;;4980706;28;20022;-63
2023/08/01 01:00:36;;;;;;;1.17;0.65;;;16.50;99.90;;;;;;4971028;28;20031;-63
2023/08/01 01:03:02;;;;;;;2.45;0.50;;;16.50;99.90;;;;;;4986540;28;20038;-63
2023/08/01 01:05:34;;;;;;;0.63;0.40;;;16.50;99.90;;;;;;4982175;28;20027;-63
2023/08/01 01:08:01;;;;;;;0.30;0.25;;;16.50;99.90;;;;;;4988917;28;20118;-63
2023/08/01 01:10:26;;;;;;;1.58;0.60;;;16.50;99.90;;;;;;4985783;28;20042;-63
2023/08/01 01:12:52;;;;;;;0.65;0.50;;;16.50;99.90;;;;;;4984574;28;20034;-64
2023/08/01 01:15:18;;;;;;;0.40;0.40;;;16.50;99.90;;;;;;4982297;28;20034;-64
2023/08/01 01:17:44;;;;;;;4.20;0.68;;;16.50;99.90;;;;;;4982871;28;20100;-63
2023/08/01 01:20:10;;;;;;;2.42;0.80;;;16.50;99.90;;;;;;4963947;28;20388;-63
2023/08/01 01:22:37;;;;;;;0.57;0.20;;;16.50;99.90;;;;;;4970443;28;20166;-63
2023/08/01 01:25:05;;;;;;;5.93;0.77;;;16.50;99.90;;;;;;4984200;28;20046;-64
2023/08/01 01:27:31;;;;;;;4.43;0.43;;;16.50;99.90;;;;;;4971485;28;20038;-63
2023/08/01 01:29:58;;;;;;;0.85;0.40;;;16.50;99.90;;;;;;4988865;28;20037;-63
2023/08/01 01:32:23;;;;;;;1.85;0.60;;;16.50;99.90;;;;;;4988120;28;20057;-63
2023/08/01 01:34:49;;;;;;;0.68;0.50;;;16.50;99.90;;;;;;4967015;28;20536;-64
2023/08/01 01:37:14;;;;;;;3.13;0.82;;;16.50;99.90;;;;;;4990071;28;20018;-64
2023/08/01 01:39:40;;;;;;;1.35;0.52;;;16.50;99.90;;;;;;4987758;28;20033;-62
2023/08/01 01:42:06;;;;;;;1.95;0.60;;;16.50;99.90;;;;;;4989944;28;20424;-64
2023/08/01 01:44:32;;;;;;;1.27;0.47;;;16.50;99.90;;;;;;4955024;28;20053;-64
2023/08/01 01:46:57;;;;;;;0.95;0.60;;;16.50;99.90;;;;;;4987360;28;20052;-63
2023/08/01 01:49:24;;;;;;;0.40;0.40;;;16.50;99.90;;;;;;4985042;28;20039;-63
2023/08/01 01:51:50;;;;;;;0.85;0.60;;;16.50;99.90;;;;;;4979815;28;20027;-64
2023/08/01 01:54:15;;;;;;;0.80;0.63;;;16.50;99.90;;;;;;4986172;28;20408;-64
2023/08/01 01:56:41;;;;;;;2.92;0.77;;;16.50;99.90;;;;;;4983179;28;20372;-64
2023/08/01 01:59:07;;;;;;;5.25;0.70;;;16.50;99.90;;;;;;4981833;28;20056;-64
2023/08/01 02:01:32;;;;;;;0.60;0.60;;;16.50;99.90;;;;;;4985166;28;20030;-64
2023/08/01 02:03:58;;;;;;;1.00;0.50;;;16.50;99.90;;;;;;4986500;28;20104;-64
2023/08/01 02:06:23;;;;;;;1.15;0.52;;;16.50;99.90;;;;;;4983916;28;20030;-64
2023/08/01 02:08:49;;;;;;;4.43;0.40;;;16.60;99.90;;;;;;4986814;28;20109;-64
2023/08/01 02:11:14;;;;;;;0.90;0.70;;;16.60;99.90;;;;;;4984394;28;20066;-65
2023/08/01 02:13:40;;;;;;;0.75;0.75;;;16.60;99.90;;;;;;4980971;28;21139;-64
2023/08/01 02:16:06;;;;;;;1.27;0.73;;;16.60;99.90;;;;;;4963766;28;20030;-64
2023/08/01 02:18:31;;;;;;;2.15;1.05;;;16.60;99.90;;;;;;4983070;28;20403;-64
2023/08/01 02:20:57;;;;;;;0.73;0.65;;;16.60;99.90;;;;;;4982085;28;20026;-65
2023/08/01 02:23:22;;;;;;;1.05;0.70;;;16.60;99.90;;;;;;4982062;28;20034;-64
2023/08/01 02:25:48;;;;;;;1.75;0.60;;;16.50;99.90;;;;;;4980638;28;20038;-64
2023/08/01 02:28:14;;;;;;;1.02;0.65;;;16.50;99.90;;;;;;4978676;28;20023;-64
2023/08/01 02:30:39;;;;;;;1.00;0.70;;;16.50;99.90;;;;;;4981681;28;20448;-64
2023/08/01 02:33:05;;;;;;;0.70;0.63;;;16.40;99.90;;;;;;4980704;28;20608;-64
2023/08/01 02:35:31;;;;;;;0.55;0.35;;;16.40;99.90;;;;;;4941845;28;20120;-64
2023/08/01 02:37:56;;;;;;;0.70;0.38;;;16.40;99.90;;;;;;4984510;28;20026;-64
2023/08/01 02:40:22;;;;;;;0.70;0.40;;;16.40;99.90;;;;;;4983231;28;20117;-64
2023/08/01 02:42:48;;;;;;;4.95;0.68;;;16.40;99.90;;;;;;4969432;28;20026;-64
2023/08/01 02:45:13;;;;;;;0.77;0.65;;;16.40;99.90;;;;;;4980980;28;20030;-64
2023/08/01 02:47:39;;;;;;;2.17;0.70;;;16.30;99.90;;;;;;4984867;28;20118;-64
2023/08/01 02:50:05;;;;;;;2.97;0.82;;;16.40;99.90;;;;;;4984950;28;20031;-65
2023/08/01 02:52:31;;;;;;;1.17;0.52;;;16.30;99.90;;;;;;4978960;28;20064;-64
2023/08/01 02:54:57;;;;;;;1.20;0.85;;;16.40;99.90;;;;;;4982297;28;20057;-64
2023/08/01 02:57:23;;;;;;;0.90;0.60;;;16.30;99.90;;;;;;4982558;28;20031;-65
2023/08/01 02:59:49;;;;;;;5.70;0.63;;;16.30;99.90;;;;;;4987863;28;20028;-64
2023/08/01 03:02:14;;;;;;;1.15;0.70;;;16.30;99.90;;;;;;4980835;28;20023;-64
2023/08/01 03:04:40;;;;;;;1.98;0.80;;;16.30;99.90;;;;;;4984984;28;20063;-64
2023/08/01 03:07:05;;;;;;;1.17;0.98;;;16.20;99.90;;;;;;4983069;28;20033;-64
2023/08/01 03:09:32;;;;;;;3.83;0.68;;;16.20;99.90;;;;;;4977240;28;20035;-64
2023/08/01 03:11:58;;;;;;;1.58;0.80;;;16.10;99.90;;;;;;4982034;28;20065;-64
2023/08/01 03:14:23;;;;;;;1.08;0.73;;;16.10;99.90;;;;;;4987424;28;20054;-64
2023/08/01 03:16:49;;;;;;;3.17;0.95;;;16.00;99.90;;;;;;4981851;28;20420;-64
2023/08/01 03:19:14;;;;;;;1.58;1.08;;;16.00;99.90;;;;;;4965640;28;20139;-63
2023/08/01 03:21:40;;;;;;;3.70;0.88;;;16.00;99.90;;;;;;4988069;28;20037;-64
2023/08/01 03:24:08;;;;;;;4.20;0.80;;;15.90;99.90;;;;;;4984515;28;20031;-64
2023/08/01 03:26:37;;;;;;;1.20;1.10;;;16.00;99.90;;;;;;4968110;28;20053;-65
2023/08/01 03:29:02;;;;;;;1.30;1.20;;;16.00;99.90;;;;;;4990481;28;20034;-64
2023/08/01 03:31:29;;;;;;;1.95;1.40;;;15.90;99.90;;;;;;4990725;28;20138;-64
2023/08/01 03:33:55;;;;;;;2.03;1.45;;;16.00;99.90;;;;;;4988592;28;20529;-64
2023/08/01 03:36:20;;;;;;;2.00;1.75;;;16.00;99.90;;;;;;4969201;28;20124;-64
2023/08/01 03:38:46;;;;;;;3.20;2.50;;;15.90;99.90;;;;;;4987403;28;20026;-64
2023/08/01 03:41:12;;;;;;;3.47;2.80;;;15.90;99.90;;;;;;4982727;28;20121;-64
2023/08/01 03:43:37;;;;;;;6.53;3.25;;;15.90;99.90;;;;;;4989858;28;20049;-64
2023/08/01 03:46:04;;;;;;;9.45;3.42;;;15.90;99.90;;;;;;4989194;28;20476;-64
2023/08/01 03:48:30;;;;;;;3.47;2.33;;;15.90;99.90;;;;;;4988384;28;20073;-64
2023/08/01 03:50:55;;;;;;;3.08;2.35;;;15.90;99.90;;;;;;4987110;28;20058;-64
2023/08/01 03:53:21;;;;;;;7.28;2.40;;;15.90;99.90;;;;;;4975262;28;20041;-64
2023/08/01 03:55:48;;;;;;;4.55;2.30;;;15.80;99.90;;;;;;4988851;28;20026;-64
2023/08/01 03:58:14;;;;;;;4.47;2.63;;;15.80;99.90;;;;;;4989889;28;20018;-64
2023/08/01 04:00:39;;;;;;;3.08;2.72;;;15.70;99.90;;;;;;4988000;28;20495;-64
2023/08/01 04:03:05;;;;;;;5.55;2.60;;;15.70;99.90;;;;;;4993005;28;20022;-64
2023/08/01 04:05:30;;;;;;;5.07;2.60;;;15.70;99.90;;;;;;4988972;28;20903;-65
2023/08/01 04:07:57;;;;;;;7.90;2.78;;;15.70;99.90;;;;;;4987673;28;20101;-64
2023/08/01 04:10:23;;;;;;;4.07;2.83;;;15.70;99.90;;;;;;4986309;28;20534;-64
2023/08/01 04:12:49;;;;;;;5.32;2.85;;;15.60;99.90;;;;;;4987964;28;20042;-64
2023/08/01 04:15:14;;;;;;;4.70;2.90;;;15.60;99.90;;;;;;4990575;28;20102;-64
2023/08/01 04:17:40;;;;;;;6.95;3.33;;;15.60;99.90;;;;;;4984909;28;20054;-63
2023/08/01 04:20:06;;;;;;;4.10;3.50;;;15.60;99.90;;;;;;4986559;28;20488;-64
2023/08/01 04:22:32;;;;;;;5.00;3.45;;;15.60;99.90;;;;;;4986938;28;20113;-64
2023/08/01 04:24:58;;;;;;;6.18;3.65;;;15.60;99.90;;;;;;4987395;28;20057;-64
2023/08/01 04:27:23;;;;;;;5.10;3.97;;;15.60;99.90;;;;;;4983885;28;20069;-64
2023/08/01 04:29:49;;;;;;;5.25;3.67;;;15.60;99.90;;;;;;4981776;28;20527;-63
2023/08/01 04:32:15;;;;;;;6.72;4.05;;;15.60;99.90;;;;;;4986137;28;20022;-64
2023/08/01 04:34:41;;;;;;;11.05;4.70;;;15.50;99.90;;;;;;4983097;28;20049;-64
2023/08/01 04:37:07;;;;;;;6.30;4.15;;;15.50;99.90;;;;;;4967093;28;20058;-63
2023/08/01 04:39:33;;;;;;;16.95;4.93;;;15.50;99.90;;;;;;4963140;28;20077;-64
2023/08/01 04:41:59;;;;;;;8.73;4.32;;;15.50;99.90;;;;;;4987478;28;20026;-64
2023/08/01 04:44:24;;;;;;;6.90;4.00;;;15.50;99.90;;;;;;4990038;28;20034;-64
2023/08/01 04:46:50;;;;;;;7.63;3.80;;;15.50;99.90;;;;;;4981678;28;20042;-63
2023/08/01 04:49:15;;;;;;;10.50;4.90;;;15.50;99.90;;;;;;4987872;28;20030;-64
2023/08/01 04:51:41;;;;;;;9.02;5.32;;;15.50;99.90;;;;;;4990792;28;20160;-64
2023/08/01 04:54:06;;;;;;;11.13;6.00;;;15.40;99.90;;;;;;4983756;28;20369;-64
2023/08/01 04:56:32;;;;;;;9.48;5.57;;;15.50;99.90;;;;;;4986259;28;20034;-64
2023/08/01 04:58:57;;;;;;;11.25;5.07;;;15.50;99.90;;;;;;4986397;28;20507;-64
2023/08/01 05:01:23;;;;;;;8.02;4.72;;;15.50;99.90;;;;;;4985536;28;20026;-64
2023/08/01 05:03:49;;;;;;;7.43;5.63;;;15.50;99.90;;;;;;4985985;28;20030;-64
2023/08/01 05:06:14;;;;;;;10.20;5.43;;;15.50;99.90;;;;;;4986754;28;20057;-63
2023/08/01 05:08:40;;;;;;;8.60;5.30;;;15.50;99.90;;;;;;4985389;28;20042;-64
2023/08/01 05:11:05;;;;;;;7.95;4.60;;;15.50;99.90;;;;;;4987803;28;20034;-64
2023/08/01 05:13:31;;;;;;;7.75;5.25;;;15.60;99.90;;;;;;4982806;28;20112;-64
2023/08/01 05:15:57;;;;;;;10.82;5.20;;;15.60;99.90;;;;;;4976144;28;20041;-64
2023/08/01 05:18:22;;;;;;;9.98;5.68;;;15.60;99.90;;;;;;4983535;28;20026;-64
2023/08/01 05:20:48;;;;;;;14.43;5.78;;;15.50;99.90;;;;;;4972555;28;20078;-64
2023/08/01 05:23:13;;;;;;;17.83;5.50;;;15.60;99.90;;;;;;4984850;28;20022;-64
2023/08/01 05:25:39;;;;;;;11.20;5.28;;;15.50;99.90;;;;;;4988149;28;20033;-64
2023/08/01 05:28:04;;;;;;;8.93;5.70;;;15.50;99.90;;;;;;4978392;28;20102;-64
2023/08/01 05:30:30;;;;;;;8.45;5.05;;;15.50;99.90;;;;;;4992961;28;20027;-64
2023/08/01 05:32:55;;;;;;;10.32;4.85;;;15.50;99.90;;;;;;4987390;28;20029;-64
2023/08/01 05:35:22;;;;;;;9.90;4.25;;;15.50;99.90;;;;;;4970412;28;20041;-64
2023/08/01 05:37:47;;;;;;;9.40;5.25;;;15.50;99.90;;;;;;4963620;28;20070;-63
2023/08/01 05:40:13;;;;;;;16.20;5.88;;;15.70;99.90;;;;;;4988463;28;20164;-64
2023/08/01 05:42:38;;;;;;;10.60;4.68;;;15.80;99.90;;;;;;4982321;28;20030;-64
2023/08/01 05:45:04;;;;;;;7.65;4.70;;;16.00;99.90;;;;;;4986891;28;20123;-64
2023/08/01 05:47:30;;;;;;;7.20;4.25;;;16.10;99.90;;;;;;4987473;28;20495;-64
2023/08/01 05:49:56;;;;;;;7.82;4.50;;;16.10;99.90;;;;;;4988291;28;20038;-64
2023/08/01 05:52:22;;;;;;;8.30;4.72;;;16.00;99.90;;;;;;4985824;28;20038;-64
2023/08/01 05:54:48;;;;;;;8.27;4.40;;;15.90;99.90;;;;;;4988849;28;20511;-64
2023/08/01 05:57:14;;;;;;;9.93;4.47;;;15.90;99.90;;;;;;4987332;28;20054;-64
2023/08/01 05:59:39;;;;;;;6.35;3.78;;;16.00;99.90;;;;;;4985294;28;20038;-64
2023/08/01 06:02:06;;;;;;;7.43;4.30;;;16.10;99.90;;;;;;4985955;28;20038;-64
2023/08/01 06:04:32;;;;;;;9.00;4.18;;;16.00;99.90;;;;;;4988476;28;20030;-64
2023/08/01 06:06:57;;;;;;;18.90;5.68;;;16.00;99.90;;;;;;4984509;28;20030;-64
2023/08/01 06:09:23;;;;;;;7.78;3.97;;;16.00;99.90;;;;;;4987671;28;20026;-64
2023/08/01 06:11:48;;;;;;;6.75;4.07;;;16.00;99.90;;;;;;4989295;28;20064;-63
2023/08/01 06:14:14;;;;;;;7.13;3.20;;;16.00;99.90;;;;;;4989743;28;20026;-64
2023/08/01 06:16:40;;;;;;;7.57;3.75;;;16.10;99.90;;;;;;4986316;28;20073;-64
2023/08/01 06:19:05;;;;;;;8.25;4.18;;;16.20;99.90;;;;;;4986824;28;20460;-64
2023/08/01 06:21:31;;;;;;;11.52;4.38;;;16.30;99.90;;;;;;4987558;28;20027;-64
2023/08/01 06:23:57;;;;;;;10.18;3.53;;;16.40;99.90;;;;;;4984635;28;20037;-64
2023/08/01 06:26:22;;;;;;;10.52;3.83;;;16.60;99.90;;;;;;4988591;28;20041;-64
2023/08/01 06:28:48;;;;;;;7.68;3.30;;;16.70;99.90;;;;;;4985785;28;20026;-64
2023/08/01 06:31:13;;;;;;;8.10;3.67;;;16.70;99.90;;;;;;4983978;28;20480;-64
2023/08/01 06:33:39;;;;;;;8.63;3.72;;;16.90;99.90;;;;;;4985639;28;20042;-64
2023/08/01 06:36:05;;;;;;;11.93;3.63;;;17.10;99.90;;;;;;4968772;28;20106;-64
2023/08/01 06:38:31;;;;;;;9.25;3.50;;;17.20;99.90;;;;;;4984760;28;20403;-64
2023/08/01 06:40:57;;;;;;;8.05;3.17;;;17.20;99.90;;;;;;4982794;28;20031;-64
2023/08/01 06:43:24;;;;;;;9.70;4.38;;;17.00;99.90;;;;;;4983789;28;20531;-64
2023/08/01 06:45:50;;;;;;;7.68;3.25;;;16.90;99.90;;;;;;4989326;28;20022;-63
2023/08/01 06:48:15;;;;;;;9.00;4.10;;;16.90;99.90;;;;;;4986957;28;20112;-64
2023/08/01 06:50:41;;;;;;;7.32;3.85;;;17.00;99.90;;;;;;4992454;28;20030;-64
2023/08/01 06:53:08;;;;;;;7.50;2.88;;;17.10;99.90;;;;;;4987186;28;20034;-64
2023/08/01 06:55:33;;;;;;;7.70;3.63;;;17.20;99.90;;;;;;4988064;28;20042;-64
2023/08/01 06:57:59;;;;;;;5.65;3.13;;;17.30;99.90;;;;;;4990930;28;20026;-64
2023/08/01 07:00:25;;;;;;;6.68;3.90;;;17.30;99.90;;;;;;4988455;28;20644;-64
2023/08/01 07:02:50;;;;;;;8.75;2.90;;;17.40;99.90;;;;;;4990394;28;20033;-63
2023/08/01 07:05:16;;;;;;;8.85;3.17;;;17.40;99.90;;;;;;4991834;28;20030;-64
2023/08/01 07:07:41;;;;;;;11.95;3.53;;;17.40;99.90;;;;;;4986145;28;20034;-64
2023/08/01 07:10:07;;;;;;;9.95;3.97;;;17.40;99.90;;;;;;4988290;28;20026;-64
2023/08/01 07:12:33;;;;;;;9.00;3.70;;;17.40;99.90;;;;;;4990677;28;20081;-64
2023/08/01 07:14:59;;;;;;;5.82;3.15;;;17.50;99.90;;;;;;4992898;28;20026;-64
2023/08/01 07:17:24;;;;;;;5.78;3.08;;;17.80;99.90;;;;;;4990743;28;20043;-64
2023/08/01 07:19:50;;;;;;;8.93;3.17;;;17.90;99.90;;;;;;4974677;28;20065;-64
2023/08/01 07:22:15;;;;;;;12.18;3.10;;;17.70;99.90;;;;;;4991470;28;20034;-64
2023/08/01 07:24:41;;;;;;;9.60;3.17;;;17.60;99.90;;;;;;4992219;28;20558;-64
2023/08/01 07:27:06;;;;;;;9.27;2.83;;;17.80;99.90;;;;;;4989494;28;20030;-64
2023/08/01 07:29:32;;;;;;;8.30;3.47;;;17.90;99.90;;;;;;4973591;28;20042;-64
2023/08/01 07:31:58;;;;;;;12.15;3.47;;;17.90;99.90;;;;;;4985706;28;20377;-64
2023/08/01 07:34:23;;;;;;;9.55;3.30;;;17.80;99.90;;;;;;4990316;28;20034;-64
2023/08/01 07:36:49;;;;;;;7.60;3.47;;;17.70;99.90;;;;;;4971731;28;20093;-64
2023/08/01 07:39:15;;;;;;;5.13;2.70;;;17.70;99.90;;;;;;4987237;28;20512;-65
2023/08/01 07:41:41;;;;;;;7.00;3.17;;;17.70;99.90;;;;;;4986745;28;20027;-64
2023/08/01 07:44:06;;;;;;;8.07;3.60;;;17.40;99.90;;;;;;4990884;28;20408;-64
2023/08/01 07:46:32;;;;;;;10.07;4.00;;;17.30;99.90;;;;;;4990840;28;20460;-64
2023/08/01 07:48:59;;;;;;;9.52;3.60;;;17.30;99.90;;;;;;4990030;28;20069;-65
2023/08/01 07:51:25;;;;;;;7.88;4.22;;;17.40;99.90;;;;;;4983138;28;20100;-64
2023/08/01 07:53:53;;;;;;;8.95;3.38;;;17.70;99.90;;;;;;4988123;28;20026;-65
2023/08/01 07:56:19;;;;;;;6.00;3.10;;;18.60;99.90;;;;;;4988886;28;20042;-64
2023/08/01 07:58:45;;;;;;;9.25;4.10;;;19.60;99.90;;;;;;4984743;28;20558;-65
2023/08/01 08:01:10;;;;;;;11.25;3.08;;;20.80;99.90;;;;;;4988633;28;20034;-64
2023/08/01 08:03:36;;;;;;;6.00;3.15;;;21.80;99.90;;;;;;4992522;28;20121;-65
2023/08/01 08:06:03;;;;;;;5.40;2.75;;;23.40;99.90;;;;;;4987145;28;20099;-65
2023/08/01 08:08:29;;;;;;;5.65;2.75;;;24.50;99.90;;;;;;4989426;28;20083;-65
2023/08/01 08:10:55;;;;;;;4.80;2.42;;;23.90;99.90;;;;;;4990901;28;20026;-65
2023/08/01 08:13:21;;;;;;;7.78;2.40;;;23.80;99.90;;;;;;4992230;28;20027;-65
2023/08/01 08:15:47;;;;;;;5.70;2.70;;;24.00;99.90;;;;;;4990727;28;20030;-63
2023/08/01 08:18:12;;;;;;;6.80;3.13;;;23.40;99.90;;;;;;4992221;28;20026;-65
2023/08/01 08:20:45;;;;;;;4.32;2.80;;;23.30;99.90;;;;;;4991221;28;20019;-65
2023/08/01 08:23:13;;;;;;;6.57;2.80;;;23.50;99.90;;;;;;4991003;28;20019;-65
2023/08/01 08:25:39;;;;;;;5.70;2.88;;;22.90;99.90;;;;;;4986329;28;20141;-65
2023/08/01 08:28:05;;;;;;;5.88;2.33;;;21.80;99.90;;;;;;4987907;28;20058;-64
2023/08/01 08:30:30;;;;;;;6.88;2.33;;;21.60;99.90;;;;;;4989645;28;20049;-65
2023/08/01 08:32:58;;;;;;;6.85;2.42;;;22.10;99.90;;;;;;4992431;28;20027;-65
2023/08/01 08:35:24;;;;;;;7.00;2.40;;;23.60;99.90;;;;;;4986010;28;20018;-65
2023/08/01 08:37:49;;;;;;;4.85;2.25;;;24.10;99.90;;;;;;4971028;28;20073;-64
2023/08/01 08:40:15;;;;;;;8.23;2.90;;;23.50;99.90;;;;;;4991545;28;20035;-65
2023/08/01 08:42:42;;;;;;;10.27;2.67;;;23.10;99.90;;;;;;4989919;28;20368;-65
2023/08/01 08:45:08;;;;;;;6.75;2.55;;;22.40;99.90;;;;;;4984545;28;20030;-65
2023/08/01 08:47:37;;;;;;;6.88;2.65;;;22.00;99.90;;;;;;4989999;28;20026;-65
2023/08/01 08:50:04;;;;;;;12.90;3.72;;;21.60;99.90;;;;;;4981862;28;20042;-65
2023/08/01 08:52:30;;;;;;;7.30;2.85;;;21.30;99.90;;;;;;4980005;28;20039;-65
2023/08/01 08:54:56;;;;;;;9.15;3.35;;;21.10;99.90;;;;;;4986780;28;20037;-64
2023/08/01 08:57:23;;;;;;;5.75;2.33;;;20.80;99.90;;;;;;4982539;28;20113;-65
2023/08/01 08:59:49;;;;;;;8.18;2.80;;;20.80;99.90;;;;;;4991735;28;20503;-64
2023/08/01 09:02:16;;;;;;;5.07;2.67;;;21.30;99.90;;;;;;4979976;28;20023;-65
2023/08/01 09:04:42;;;;;;;5.05;2.70;;;21.70;99.90;;;;;;4989951;28;20014;-65
2023/08/01 09:07:12;;;;;;;10.85;3.17;;;22.00;99.90;;;;;;4988689;28;20066;-65
2023/08/01 09:09:38;;;;;;;4.20;2.75;;;21.60;99.90;;;;;;4980971;28;20122;-65
2023/08/01 09:12:04;;;;;;;4.00;2.33;;;21.50;99.90;;;;;;4988448;28;20106;-65
2023/08/01 09:14:32;;;;;;;10.20;2.88;;;21.90;99.90;;;;;;4991116;28;20101;-65
2023/08/01 09:17:06;;;;;;;10.25;2.47;;;22.30;99.90;;;;;;4964731;28;20061;-64
2023/08/01 09:19:32;;;;;;;6.93;2.50;;;22.20;99.90;;;;;;4983801;28;20014;-64
2023/08/01 09:21:58;;;;;;;10.50;2.42;;;22.40;99.90;;;;;;4990250;28;20515;-66
2023/08/01 09:24:24;;;;;;;6.85;2.60;;;22.20;99.90;;;;;;4988087;28;20030;-66
2023/08/01 09:26:50;;;;;;;9.52;3.20;;;22.00;99.90;;;;;;4986466;28;20036;-64
2023/08/01 09:29:20;;;;;;;7.38;2.15;;;21.40;99.90;;;;;;4988636;28;20050;-64
2023/08/01 09:31:46;;;;;;;8.00;2.50;;;21.40;99.90;;;;;;4986311;28;20026;-64
2023/08/01 09:34:23;;;;;;;5.10;2.58;;;21.50;99.90;;;;;;4984872;28;20026;-64
2023/08/01 09:36:49;;;;;;;8.73;2.55;;;21.80;99.90;;;;;;4985749;28;20026;-64
2023/08/01 09:39:20;;;;;;;5.63;1.60;;;22.30;99.90;;;;;;4947667;28;20042;-64
2023/08/01 09:41:54;;;;;;;6.60;2.05;;;22.60;99.90;;;;;;4981876;28;20041;-63
2023/08/01 09:44:20;;;;;;;5.53;1.67;;;22.80;99.90;;;;;;4985830;28;20023;-64
2023/08/01 09:47:04;;;;;;;4.88;2.00;;;22.60;99.90;;;;;;4993176;28;20503;-64
2023/08/01 09:49:31;;;;;;;4.20;1.70;;;22.30;99.90;;;;;;4982617;28;20031;-64
2023/08/01 09:51:58;;;;;;;3.97;1.98;;;22.80;99.90;;;;;;4977913;28;20030;-64
2023/08/01 09:54:24;;;;;;;6.60;2.80;;;22.90;99.90;;;;;;4984390;28;20086;-64
2023/08/01 09:56:51;;;;;;;6.13;2.10;;;23.00;99.90;;;;;;4983029;28;20026;-64
2023/08/01 09:59:21;;;;;;;7.25;2.45;;;23.00;99.90;;;;;;4965218;28;20545;-65
2023/08/01 10:01:50;;;;;;;7.47;2.42;;;23.10;99.90;;;;;;4986955;28;21966;-63
2023/08/01 10:04:20;;;;;;;4.93;1.83;;;22.40;99.90;;;;;;4972921;28;20419;-64
2023/08/01 10:06:50;;;;;;;6.07;2.00;;;22.20;99.90;;;;;;4976310;28;20634;-64
2023/08/01 10:09:17;;;;;;;4.20;1.90;;;22.60;99.90;;;;;;4984399;28;20392;-64
2023/08/01 10:11:44;;;;;;;5.18;1.80;;;22.60;99.90;;;;;;4990413;28;20025;-64
2023/08/01 10:14:10;;;;;;;3.47;1.52;;;22.00;99.90;;;;;;4982623;28;20105;-64
2023/08/01 10:16:36;;;;;;;3.97;2.00;;;22.30;99.90;;;;;;4967289;28;20035;-64
2023/08/01 10:19:05;;;;;;;2.63;1.35;;;22.40;99.90;;;;;;4984872;28;20603;-64
2023/08/01 10:21:32;;;;;;;4.45;1.80;;;22.90;99.90;;;;;;4983924;28;20019;-64
2023/08/01 10:23:59;;;;;;;4.00;1.63;;;23.00;99.90;;;;;;4986313;28;20030;-64
2023/08/01 10:26:25;;;;;;;6.55;1.92;;;22.90;99.90;;;;;;4994579;28;20046;-64
2023/08/01 10:28:52;;;;;;;6.50;2.10;;;22.80;99.90;;;;;;4993940;28;20109;-64
2023/08/01 10:31:20;;;;;;;3.50;1.90;;;22.40;99.90;;;;;;4994781;28;20500;-66
2023/08/01 10:33:47;;;;;;;4.40;1.80;;;22.30;99.90;;;;;;4991100;28;20034;-61
2023/08/01 10:36:17;;;;;;;4.47;1.63;;;22.30;99.90;;;;;;4973794;28;20045;-64
2023/08/01 10:38:54;;;;;;;4.55;1.80;;;22.10;99.90;;;;;;4967012;28;20161;-64
2023/08/01 10:41:21;;;;;;;5.75;1.65;;;22.20;99.90;;;;;;4990047;28;20038;-64
2023/08/01 10:43:47;;;;;;;3.75;1.52;;;22.30;99.90;;;;;;4993905;28;20018;-61
2023/08/01 10:46:12;;;;;;;3.97;1.58;;;22.40;99.90;;;;;;4994098;28;20037;-66
2023/08/01 10:48:52;;;;;;;8.52;1.58;;;22.40;99.90;;;;;;4994632;28;20384;-64
2023/08/01 10:51:18;;;;;;;5.72;2.17;;;22.80;99.90;;;;;;4975415;28;20041;-66
2023/08/01 10:53:43;;;;;;;4.32;1.80;;;23.30;99.90;;;;;;4994064;28;20119;-64
2023/08/01 10:56:17;;;;;;;5.65;2.10;;;23.70;98.60;;;;;;4994671;28;20022;-64
2023/08/01 10:58:42;;;;;;;4.13;1.83;;;23.60;99.40;;;;;;4998732;28;20117;-64
2023/08/01 11:01:08;;;;;;;6.05;2.00;;;23.50;99.90;;;;;;4992708;28;20603;-64
2023/08/01 11:03:38;;;;;;;6.32;1.95;;;23.70;99.30;;;;;;4993770;28;20033;-64
2023/08/01 11:06:04;;;;;;;8.48;2.33;;;23.80;99.20;;;;;;4999513;28;20022;-64
2023/08/01 11:08:38;;;;;;;4.00;1.67;;;23.80;99.70;;;;;;4975314;28;20030;-65
2023/08/01 11:11:06;;;;;;;4.15;1.80;;;23.70;99.30;;;;;;4993517;28;20045;-65
2023/08/01 11:13:34;;;;;;;6.78;1.80;;;23.50;99.90;;;;;;4992900;28;20029;-65
2023/08/01 11:16:01;;;;;;;5.90;1.70;;;23.70;99.30;;;;;;4993644;28;20026;-64
2023/08/01 11:18:27;;;;;;;3.10;1.67;;;23.70;98.30;;;;;;4995635;28;20022;-64
2023/08/01 11:20:52;;;;;;;7.22;1.50;;;23.60;98.10;;;;;;4989257;28;20053;-65
2023/08/01 11:23:18;;;;;;;3.03;1.42;;;23.90;97.90;;;;;;4990530;28;20038;-65
2023/08/01 11:25:45;;;;;;;3.67;1.45;;;24.10;97.70;;;;;;4974883;28;20033;-65
2023/08/01 11:28:13;;;;;;;2.60;1.58;;;24.10;95.90;;;;;;4994658;28;20419;-64
2023/08/01 11:30:40;;;;;;;6.25;1.67;;;24.10;95.30;;;;;;4986924;28;20026;-65
2023/08/01 11:33:20;;;;;;;2.10;1.30;;;23.90;95.20;;;;;;4993613;28;20061;-66
2023/08/01 11:35:50;;;;;;;4.38;1.80;;;23.20;96.10;;;;;;4994351;28;20030;-65
2023/08/01 11:38:16;;;;;;;5.78;1.63;;;23.20;97.30;;;;;;4988044;28;20488;-64
2023/08/01 11:40:42;;;;;;;3.42;1.63;;;23.00;98.20;;;;;;4963559;28;20064;-64
2023/08/01 11:43:08;;;;;;;9.15;2.47;;;22.80;98.30;;;;;;4990047;28;20113;-64
2023/08/01 11:45:33;;;;;;;10.45;2.03;;;23.00;99.40;;;;;;4990564;28;20109;-65
2023/08/01 11:47:59;;;;;;;4.68;1.35;;;23.00;99.10;;;;;;4989125;28;20038;-64
2023/08/01 11:50:26;;;;;;;3.42;1.15;;;23.00;97.50;;;;;;4989683;28;20535;-64
2023/08/01 11:52:52;;;;;;;1.83;1.05;;;22.80;97.90;;;;;;4986735;28;20030;-65
2023/08/01 11:55:22;;;;;;;2.88;1.33;;;22.90;97.50;;;;;;4985675;28;20443;-64
2023/08/01 11:57:55;;;;;;;7.60;1.20;;;23.00;95.90;;;;;;4987847;28;20048;-63
2023/08/01 12:00:26;;;;;;;4.82;1.40;;;22.80;96.10;;;;;;4987428;28;20396;-65
2023/08/01 12:02:51;;;;;;;4.85;1.73;;;22.80;97.00;;;;;;4995217;28;20173;-65
2023/08/01 12:05:24;;;;;;;4.82;1.30;;;22.90;98.10;;;;;;4990254;28;20532;-65
2023/08/01 12:07:49;;;;;;;2.65;1.27;;;22.70;97.30;;;;;;4973527;28;20655;-63
2023/08/01 12:10:15;;;;;;;3.65;1.50;;;22.50;98.00;;;;;;4995479;28;20061;-65
2023/08/01 12:12:46;;;;;;;4.13;1.25;;;22.30;97.70;;;;;;5016023;23;20056;-66
2023/08/01 12:15:14;;;;;;;6.15;2.08;;;22.40;97.70;;;;;;5028863;28;20048;-64
2023/08/01 12:17:39;;;;;;;4.45;1.55;;;22.10;99.90;;;;;;5019473;28;20033;-64
2023/08/01 12:20:05;;;;;;;5.88;1.75;;;21.80;99.90;;;;;;5018908;28;20321;-65
2023/08/01 12:22:31;;;;;;;4.80;1.83;;;21.60;99.90;;;;;;5016612;28;21811;-66
2023/08/01 12:24:57;;;;;;;2.63;1.45;;;21.60;99.90;;;;;;5021607;28;20041;-63
2023/08/01 12:27:22;;;;;;;5.55;1.90;;;21.90;99.90;;;;;;5028110;28;20506;-66
2023/08/01 12:29:48;;;;;;;7.85;1.80;;;22.20;99.90;;;;;;5020208;28;20025;-61
2023/08/01 12:32:14;;;;;;;6.75;1.17;;;22.20;99.90;;;;;;5030017;28;20582;-63
2023/08/01 12:34:39;;;;;;;4.53;1.60;;;22.20;99.90;;;;;;5020155;28;20562;-63
2023/08/01 12:37:05;;;;;;;3.75;1.30;;;22.20;99.90;;;;;;5030453;28;20391;-64
2023/08/01 12:39:31;;;;;;;3.85;1.58;;;22.20;99.90;;;;;;5004855;28;20045;-64
2023/08/01 12:41:57;;;;;;;5.28;1.40;;;22.00;99.90;;;;;;5023056;28;20018;-65